SVA741 VABB-OERK
Flight info
| Callsign | SVA741 |
|---|---|
| Flight time | N/A |
| Altitude | 34000 |
| Route | RAXET2A SAKUN V2 SUGID N571 PARAR M628 IVOMA/N0491F360 M628 TULBU G652 TOKRA DCT ALROK DCT BOSOB/N0489F280 M321 NAGUB |
| Aircraft | B77W/H-SDE1E2E3FGHIJ2J3J4J5M1RWXY/LB1D1 |
Departure
| Time | 2026-05-08 09:09 |
|---|---|
| Airport | Chhatrapati Shivaji Maharaj International Airport (VABB) |
Arrival
| Time | N/A |
|---|---|
| Airport | King Khalid International Airport (OERK) |
| Time | Latitude | Longitude | Altitude | Speed | Heading |
|---|---|---|---|---|---|
| 2026-05-08 08:15 | 19.09309 | 72.87072 | 38 ft | 0 kts | 32° |
| 2026-05-08 08:57 | 19.09307 | 72.87071 | 38 ft | 3 kts | 32° |
| 2026-05-08 08:58 | 19.09284 | 72.87057 | 38 ft | 4 kts | 24° |
| 2026-05-08 08:58 | 19.09260 | 72.87046 | 35 ft | 2 kts | 27° |
| 2026-05-08 08:58 | 19.09243 | 72.87032 | 37 ft | 4 kts | 73° |
| 2026-05-08 08:58 | 19.09241 | 72.87005 | 38 ft | 4 kts | 102° |
| 2026-05-08 08:59 | 19.09244 | 72.86993 | 38 ft | 0 kts | 105° |
| 2026-05-08 09:02 | 19.09241 | 72.87005 | 38 ft | 6 kts | 103° |
| 2026-05-08 09:02 | 19.09235 | 72.87057 | 38 ft | 7 kts | 92° |
| 2026-05-08 09:03 | 19.09235 | 72.87110 | 38 ft | 7 kts | 90° |
| 2026-05-08 09:03 | 19.09235 | 72.87162 | 38 ft | 7 kts | 90° |
| 2026-05-08 09:03 | 19.09236 | 72.87214 | 39 ft | 7 kts | 89° |
| 2026-05-08 09:03 | 19.09209 | 72.87253 | 39 ft | 7 kts | 162° |
| 2026-05-08 09:04 | 19.09160 | 72.87261 | 39 ft | 7 kts | 173° |
| 2026-05-08 09:04 | 19.09110 | 72.87265 | 39 ft | 7 kts | 176° |
| 2026-05-08 09:04 | 19.09064 | 72.87283 | 39 ft | 7 kts | 133° |
| 2026-05-08 09:04 | 19.09051 | 72.87336 | 40 ft | 8 kts | 95° |
| 2026-05-08 09:05 | 19.09052 | 72.87403 | 40 ft | 10 kts | 89° |
| 2026-05-08 09:05 | 19.09053 | 72.87473 | 40 ft | 10 kts | 89° |
| 2026-05-08 09:05 | 19.09054 | 72.87543 | 41 ft | 10 kts | 89° |
| 2026-05-08 09:05 | 19.09055 | 72.87613 | 41 ft | 10 kts | 89° |
| 2026-05-08 09:06 | 19.09056 | 72.87683 | 41 ft | 10 kts | 89° |
| 2026-05-08 09:06 | 19.09057 | 72.87753 | 42 ft | 10 kts | 89° |
| 2026-05-08 09:06 | 19.09057 | 72.87823 | 42 ft | 10 kts | 89° |
| 2026-05-08 09:06 | 19.09058 | 72.87893 | 42 ft | 10 kts | 89° |
| 2026-05-08 09:07 | 19.09059 | 72.87940 | 43 ft | 10 kts | 89° |
| 2026-05-08 09:07 | 19.09059 | 72.88010 | 43 ft | 10 kts | 97° |
| 2026-05-08 09:07 | 19.09010 | 72.88048 | 43 ft | 10 kts | 174° |
| 2026-05-08 09:07 | 19.08943 | 72.88049 | 42 ft | 10 kts | 179° |
| 2026-05-08 09:08 | 19.08891 | 72.88010 | 42 ft | 13 kts | 255° |
| 2026-05-08 09:08 | 19.08884 | 72.87824 | 42 ft | 43 kts | 269° |
| 2026-05-08 09:08 | 19.08878 | 72.87258 | 41 ft | 110 kts | 268° |
| 2026-05-08 09:08 | 19.08863 | 72.86244 | 34 ft | 164 kts | 270° |
| 2026-05-08 09:09 | 19.08835 | 72.84934 | 259 ft | 185 kts | 269° |
| 2026-05-08 09:09 | 19.08771 | 72.83596 | 930 ft | 180 kts | 269° |
| 2026-05-08 09:09 | 19.08700 | 72.82236 | 1419 ft | 191 kts | 271° |
| 2026-05-08 09:09 | 19.08670 | 72.80813 | 1934 ft | 196 kts | 272° |
| 2026-05-08 09:10 | 19.08681 | 72.79335 | 2263 ft | 211 kts | 274° |
| 2026-05-08 09:10 | 19.08695 | 72.77702 | 2463 ft | 234 kts | 273° |
| 2026-05-08 09:10 | 19.08688 | 72.75910 | 2796 ft | 251 kts | 272° |
| 2026-05-08 09:10 | 19.08725 | 72.74041 | 3299 ft | 259 kts | 277° |
| 2026-05-08 09:11 | 19.08921 | 72.72115 | 3817 ft | 268 kts | 279° |
| 2026-05-08 09:11 | 19.09158 | 72.70147 | 4496 ft | 271 kts | 280° |
| 2026-05-08 09:11 | 19.09398 | 72.68155 | 5168 ft | 275 kts | 279° |
| 2026-05-08 09:11 | 19.09636 | 72.66127 | 5782 ft | 281 kts | 279° |
| 2026-05-08 09:12 | 19.09876 | 72.64043 | 6339 ft | 289 kts | 279° |
| 2026-05-08 09:12 | 19.10117 | 72.61915 | 6960 ft | 292 kts | 278° |
| 2026-05-08 09:12 | 19.10355 | 72.59767 | 7634 ft | 295 kts | 277° |
| 2026-05-08 09:12 | 19.10591 | 72.57597 | 8247 ft | 301 kts | 277° |
| 2026-05-08 09:13 | 19.10830 | 72.55390 | 8935 ft | 302 kts | 277° |
| 2026-05-08 09:13 | 19.11070 | 72.53165 | 9598 ft | 307 kts | 276° |
| 2026-05-08 09:13 | 19.11312 | 72.50904 | 10107 ft | 315 kts | 276° |
| 2026-05-08 09:13 | 19.11566 | 72.48532 | 10330 ft | 336 kts | 276° |
| 2026-05-08 09:14 | 19.11836 | 72.45999 | 10490 ft | 358 kts | 276° |
| 2026-05-08 09:14 | 19.12123 | 72.43298 | 10644 ft | 381 kts | 276° |
| 2026-05-08 09:14 | 19.12420 | 72.40511 | 11117 ft | 391 kts | 276° |
| 2026-05-08 09:14 | 19.12731 | 72.37588 | 11771 ft | 397 kts | 276° |
| 2026-05-08 09:15 | 19.13035 | 72.34726 | 12688 ft | 397 kts | 275° |
| 2026-05-08 09:15 | 19.13344 | 72.31824 | 13581 ft | 398 kts | 275° |
| 2026-05-08 09:15 | 19.13652 | 72.28913 | 14333 ft | 400 kts | 275° |
| 2026-05-08 09:15 | 19.13963 | 72.25964 | 14911 ft | 408 kts | 276° |
| 2026-05-08 09:16 | 19.14280 | 72.22955 | 15476 ft | 415 kts | 276° |
| 2026-05-08 09:16 | 19.14602 | 72.19907 | 16105 ft | 419 kts | 277° |
| 2026-05-08 09:16 | 19.14926 | 72.16831 | 16719 ft | 424 kts | 277° |
| 2026-05-08 09:16 | 19.15254 | 72.13712 | 17293 ft | 429 kts | 277° |
| 2026-05-08 09:17 | 19.15611 | 72.10568 | 17858 ft | 431 kts | 281° |
| 2026-05-08 09:17 | 19.16534 | 72.07554 | 18281 ft | 431 kts | 299° |
| 2026-05-08 09:17 | 19.17994 | 72.04775 | 18688 ft | 435 kts | 301° |
| 2026-05-08 09:17 | 19.19483 | 72.01978 | 19236 ft | 437 kts | 301° |
| 2026-05-08 09:18 | 19.20956 | 71.99170 | 19878 ft | 437 kts | 300° |
| 2026-05-08 09:18 | 19.22412 | 71.96350 | 20496 ft | 437 kts | 300° |
| 2026-05-08 09:18 | 19.23858 | 71.93516 | 21086 ft | 438 kts | 299° |
| 2026-05-08 09:18 | 19.25300 | 71.90667 | 21608 ft | 441 kts | 298° |
| 2026-05-08 09:19 | 19.26748 | 71.87793 | 22094 ft | 444 kts | 298° |
| 2026-05-08 09:19 | 19.28204 | 71.84898 | 22579 ft | 447 kts | 298° |
| 2026-05-08 09:19 | 19.29666 | 71.81986 | 23100 ft | 449 kts | 298° |
| 2026-05-08 09:19 | 19.31132 | 71.79064 | 23576 ft | 450 kts | 298° |
| 2026-05-08 09:20 | 19.32605 | 71.76131 | 23982 ft | 452 kts | 298° |
| 2026-05-08 09:20 | 19.34085 | 71.73182 | 24355 ft | 455 kts | 298° |
| 2026-05-08 09:20 | 19.35572 | 71.70217 | 24723 ft | 457 kts | 298° |
| 2026-05-08 09:20 | 19.37069 | 71.67232 | 25084 ft | 460 kts | 298° |
| 2026-05-08 09:21 | 19.38572 | 71.64233 | 25462 ft | 462 kts | 298° |
| 2026-05-08 09:21 | 19.40082 | 71.61220 | 25843 ft | 464 kts | 298° |
| 2026-05-08 09:22 | 19.49149 | 71.42699 | 27826 ft | 480 kts | 291° |
| 2026-05-08 09:23 | 19.50092 | 71.39301 | 28205 ft | 481 kts | 283° |
| 2026-05-08 09:23 | 19.50662 | 71.35804 | 28566 ft | 483 kts | 277° |
| 2026-05-08 09:23 | 19.50852 | 71.32235 | 28830 ft | 486 kts | 273° |
| 2026-05-08 09:23 | 19.50932 | 71.28636 | 29069 ft | 490 kts | 272° |
| 2026-05-08 09:24 | 19.50995 | 71.25022 | 29320 ft | 492 kts | 272° |
| 2026-05-08 09:24 | 19.51060 | 71.21388 | 29583 ft | 493 kts | 272° |
| 2026-05-08 09:24 | 19.51133 | 71.17753 | 29918 ft | 493 kts | 273° |
| 2026-05-08 09:24 | 19.51215 | 71.14123 | 30256 ft | 492 kts | 273° |
| 2026-05-08 09:25 | 19.51304 | 71.10553 | 30589 ft | 491 kts | 273° |
| 2026-05-08 09:25 | 19.51397 | 71.06940 | 30895 ft | 490 kts | 273° |
| 2026-05-08 09:25 | 19.51493 | 71.03326 | 31203 ft | 490 kts | 273° |
| 2026-05-08 09:25 | 19.51588 | 70.99720 | 31541 ft | 489 kts | 273° |
| 2026-05-08 09:26 | 19.51682 | 70.96116 | 31879 ft | 489 kts | 273° |
| 2026-05-08 09:26 | 19.51775 | 70.92520 | 32209 ft | 488 kts | 273° |
| 2026-05-08 09:26 | 19.51866 | 70.88929 | 32532 ft | 487 kts | 273° |
| 2026-05-08 09:26 | 19.51957 | 70.85336 | 32837 ft | 487 kts | 273° |
| 2026-05-08 09:27 | 19.52047 | 70.81746 | 33113 ft | 488 kts | 273° |
| 2026-05-08 09:27 | 19.52136 | 70.78152 | 33438 ft | 487 kts | 273° |
| 2026-05-08 09:27 | 19.52224 | 70.74563 | 33750 ft | 487 kts | 272° |
| 2026-05-08 09:28 | 19.52399 | 70.67345 | 33844 ft | 490 kts | 272° |
| 2026-05-08 09:28 | 19.52570 | 70.60155 | 33834 ft | 485 kts | 272° |
| 2026-05-08 09:29 | 19.52737 | 70.53020 | 33838 ft | 484 kts | 272° |
| 2026-05-08 09:29 | 19.52902 | 70.45893 | 33845 ft | 483 kts | 272° |
| 2026-05-08 09:30 | 19.53063 | 70.38765 | 33847 ft | 484 kts | 272° |
| 2026-05-08 09:30 | 19.53223 | 70.31614 | 33846 ft | 486 kts | 272° |
| 2026-05-08 09:31 | 19.53380 | 70.24449 | 33842 ft | 487 kts | 272° |
| 2026-05-08 09:31 | 19.53534 | 70.17270 | 33841 ft | 488 kts | 272° |
| 2026-05-08 09:32 | 19.53686 | 70.10079 | 33842 ft | 488 kts | 272° |
| 2026-05-08 09:32 | 19.53835 | 70.02881 | 33844 ft | 489 kts | 272° |
| 2026-05-08 09:33 | 19.53981 | 69.95680 | 33846 ft | 489 kts | 272° |
| 2026-05-08 09:33 | 19.54124 | 69.88480 | 33846 ft | 488 kts | 272° |
| 2026-05-08 09:34 | 19.54265 | 69.81285 | 33841 ft | 488 kts | 272° |
| 2026-05-08 09:34 | 19.54402 | 69.74094 | 33842 ft | 488 kts | 272° |
| 2026-05-08 09:35 | 19.54537 | 69.66902 | 33843 ft | 488 kts | 272° |
| 2026-05-08 09:35 | 19.54669 | 69.59710 | 33838 ft | 488 kts | 272° |
| 2026-05-08 09:36 | 19.54797 | 69.52567 | 33835 ft | 488 kts | 272° |
| 2026-05-08 09:36 | 19.54923 | 69.45375 | 33839 ft | 488 kts | 272° |
| 2026-05-08 09:37 | 19.55203 | 69.38199 | 33831 ft | 487 kts | 279° |
| 2026-05-08 09:37 | 19.56907 | 69.31290 | 33844 ft | 484 kts | 292° |
| 2026-05-08 09:38 | 19.59840 | 69.24879 | 33845 ft | 483 kts | 298° |
| 2026-05-08 09:38 | 19.62958 | 69.18558 | 33838 ft | 484 kts | 298° |
| 2026-05-08 09:39 | 19.66051 | 69.12220 | 33838 ft | 484 kts | 298° |
| 2026-05-08 09:39 | 19.69115 | 69.05860 | 33837 ft | 484 kts | 297° |
| 2026-05-08 09:40 | 19.72167 | 68.99487 | 33840 ft | 484 kts | 297° |
| 2026-05-08 09:40 | 19.75216 | 68.93112 | 33839 ft | 484 kts | 297° |
| 2026-05-08 09:41 | 19.78265 | 68.86733 | 33835 ft | 484 kts | 297° |
| 2026-05-08 09:41 | 19.81311 | 68.80356 | 33837 ft | 484 kts | 297° |
| 2026-05-08 09:42 | 19.84358 | 68.73970 | 33845 ft | 484 kts | 297° |
| 2026-05-08 09:42 | 19.87399 | 68.67589 | 33843 ft | 484 kts | 297° |
| 2026-05-08 09:43 | 19.90438 | 68.61206 | 33841 ft | 484 kts | 297° |
| 2026-05-08 09:43 | 19.93472 | 68.54824 | 33844 ft | 484 kts | 297° |
| 2026-05-08 09:44 | 19.96503 | 68.48442 | 33843 ft | 484 kts | 297° |
| 2026-05-08 09:44 | 19.99531 | 68.42059 | 33846 ft | 484 kts | 297° |
| 2026-05-08 09:45 | 20.02523 | 68.35747 | 33845 ft | 484 kts | 297° |
| 2026-05-08 09:45 | 20.05550 | 68.29350 | 33845 ft | 484 kts | 297° |
| 2026-05-08 09:46 | 20.08578 | 68.22947 | 33847 ft | 484 kts | 297° |
| 2026-05-08 09:46 | 20.11602 | 68.16543 | 33842 ft | 484 kts | 297° |
| 2026-05-08 09:47 | 20.14624 | 68.10137 | 33848 ft | 485 kts | 297° |
| 2026-05-08 09:47 | 20.17646 | 68.03723 | 33847 ft | 485 kts | 297° |
| 2026-05-08 09:48 | 20.20667 | 67.97303 | 33847 ft | 485 kts | 297° |
| 2026-05-08 09:48 | 20.23686 | 67.90880 | 33846 ft | 485 kts | 297° |
| 2026-05-08 09:49 | 20.26701 | 67.84459 | 33844 ft | 485 kts | 297° |
| 2026-05-08 09:49 | 20.29717 | 67.78030 | 33844 ft | 485 kts | 297° |
| 2026-05-08 09:50 | 20.32726 | 67.71604 | 33845 ft | 485 kts | 297° |
| 2026-05-08 09:50 | 20.35737 | 67.65168 | 33845 ft | 485 kts | 298° |
| 2026-05-08 09:51 | 20.38748 | 67.58727 | 33845 ft | 485 kts | 297° |
| 2026-05-08 09:51 | 20.41755 | 67.52284 | 33845 ft | 485 kts | 297° |
| 2026-05-08 09:52 | 20.44760 | 67.45840 | 33843 ft | 486 kts | 297° |
| 2026-05-08 09:52 | 20.47763 | 67.39391 | 33846 ft | 486 kts | 297° |
| 2026-05-08 09:53 | 20.50764 | 67.32938 | 33840 ft | 486 kts | 297° |
| 2026-05-08 09:53 | 20.53764 | 67.26483 | 33844 ft | 486 kts | 297° |
| 2026-05-08 09:54 | 20.56254 | 67.21116 | 33845 ft | 486 kts | 297° |
| 2026-05-08 09:54 | 20.59250 | 67.14653 | 33846 ft | 486 kts | 297° |
| 2026-05-08 09:55 | 20.62728 | 67.07140 | 33847 ft | 486 kts | 297° |
| 2026-05-08 09:55 | 20.65720 | 67.00670 | 33845 ft | 486 kts | 297° |
| 2026-05-08 09:56 | 20.68222 | 66.95253 | 33843 ft | 486 kts | 297° |
| 2026-05-08 09:56 | 20.71211 | 66.88774 | 33870 ft | 488 kts | 297° |
| 2026-05-08 09:56 | 20.72710 | 66.85522 | 34081 ft | 488 kts | 297° |
| 2026-05-08 09:57 | 20.75686 | 66.79060 | 34861 ft | 481 kts | 297° |
| 2026-05-08 09:57 | 20.77154 | 66.75868 | 35281 ft | 477 kts | 297° |
| 2026-05-08 09:57 | 20.78611 | 66.72698 | 35599 ft | 475 kts | 297° |
| 2026-05-08 09:58 | 20.80070 | 66.69524 | 35737 ft | 477 kts | 297° |
| 2026-05-08 09:58 | 20.81514 | 66.66380 | 35774 ft | 478 kts | 296° |
| 2026-05-08 09:58 | 20.84438 | 66.60008 | 35831 ft | 477 kts | 296° |
| 2026-05-08 09:59 | 20.87344 | 66.53669 | 35832 ft | 473 kts | 296° |
| 2026-05-08 09:59 | 20.90231 | 66.47362 | 35834 ft | 471 kts | 296° |
| 2026-05-08 10:00 | 20.93103 | 66.41080 | 35840 ft | 471 kts | 296° |
| 2026-05-08 10:00 | 20.95981 | 66.34779 | 35844 ft | 472 kts | 296° |
| 2026-05-08 10:01 | 20.98863 | 66.28461 | 35843 ft | 473 kts | 296° |
| 2026-05-08 10:01 | 21.01751 | 66.22121 | 35837 ft | 475 kts | 296° |
| 2026-05-08 10:02 | 21.04645 | 66.15762 | 35833 ft | 476 kts | 296° |
| 2026-05-08 10:02 | 21.07544 | 66.09382 | 35836 ft | 476 kts | 296° |
| 2026-05-08 10:03 | 21.10440 | 66.03002 | 35836 ft | 476 kts | 296° |
| 2026-05-08 10:03 | 21.13350 | 65.96645 | 35825 ft | 475 kts | 297° |
| 2026-05-08 10:04 | 21.16330 | 65.90338 | 35822 ft | 474 kts | 297° |
| 2026-05-08 10:04 | 21.19317 | 65.84044 | 35831 ft | 474 kts | 297° |
| 2026-05-08 10:05 | 21.22286 | 65.77752 | 35838 ft | 472 kts | 297° |
| 2026-05-08 10:05 | 21.25240 | 65.71467 | 35831 ft | 472 kts | 297° |
| 2026-05-08 10:06 | 21.28173 | 65.65217 | 35827 ft | 473 kts | 297° |
| 2026-05-08 10:06 | 21.31147 | 65.58871 | 35830 ft | 474 kts | 297° |
| 2026-05-08 10:07 | 21.34103 | 65.52555 | 35828 ft | 474 kts | 297° |
| 2026-05-08 10:07 | 21.37055 | 65.46243 | 35827 ft | 473 kts | 297° |
| 2026-05-08 10:08 | 21.40009 | 65.39918 | 35820 ft | 475 kts | 297° |
| 2026-05-08 10:08 | 21.42944 | 65.33628 | 35820 ft | 475 kts | 296° |
| 2026-05-08 10:09 | 21.45894 | 65.27296 | 35812 ft | 474 kts | 296° |
| 2026-05-08 10:09 | 21.48838 | 65.20970 | 35819 ft | 473 kts | 296° |
| 2026-05-08 10:10 | 21.51778 | 65.14644 | 35817 ft | 474 kts | 296° |
| 2026-05-08 10:10 | 21.54715 | 65.08318 | 35810 ft | 473 kts | 296° |
| 2026-05-08 10:11 | 21.57645 | 65.01998 | 35816 ft | 472 kts | 296° |
| 2026-05-08 10:11 | 21.60569 | 64.95684 | 35825 ft | 472 kts | 296° |
| 2026-05-08 10:12 | 21.63497 | 64.89355 | 35816 ft | 473 kts | 296° |
| 2026-05-08 10:12 | 21.66425 | 64.83017 | 35811 ft | 474 kts | 296° |
| 2026-05-08 10:13 | 21.69334 | 64.76711 | 35819 ft | 474 kts | 296° |
| 2026-05-08 10:13 | 21.72258 | 64.70366 | 35812 ft | 474 kts | 296° |
| 2026-05-08 10:14 | 21.75185 | 64.64008 | 35812 ft | 474 kts | 296° |
| 2026-05-08 10:14 | 21.78110 | 64.57646 | 35812 ft | 474 kts | 296° |
| 2026-05-08 10:15 | 21.81020 | 64.51307 | 35810 ft | 473 kts | 296° |
| 2026-05-08 10:15 | 21.83928 | 64.44965 | 35801 ft | 472 kts | 296° |